Time;durP1;ratioP1;P1;durP2;ratioP2;P2;SDS_P1;SDS_P2;PMS_P1;PMS_P2;Temp;Humidity;BMP_temperature;BMP_pressure;BME280_temperature;BME280_humidity;BME280_pressure;Samples;Min_cycle;Max_cycle;Signal;HPM_P1;HPM_P2
2022/02/11 00:07:08;;;;;;;4.78;1.70;;;25.00;99.90;;;;;;4954666;28;20049;-75
2022/02/11 00:09:36;;;;;;;4.60;1.90;;;25.00;99.90;;;;;;4967067;28;20034;-77
2022/02/11 00:12:04;;;;;;;2.95;2.03;;;25.00;99.90;;;;;;4987693;28;20034;-73
2022/02/11 00:14:40;;;;;;;12.15;3.17;;;25.10;99.90;;;;;;4978036;28;20433;-74
2022/02/11 00:17:08;;;;;;;6.00;1.77;;;25.40;99.90;;;;;;4975266;28;20026;-74
2022/02/11 00:19:36;;;;;;;6.40;1.90;;;25.30;99.90;;;;;;4988873;28;20030;-73
2022/02/11 00:22:03;;;;;;;8.30;2.72;;;25.30;99.90;;;;;;4975786;28;20129;-76
2022/02/11 00:24:30;;;;;;;9.88;2.45;;;25.30;99.90;;;;;;4976579;28;20129;-75
2022/02/11 00:27:37;;;;;;;9.70;2.10;;;25.30;99.90;;;;;;4985327;28;20034;-74
2022/02/11 00:35:28;;;;;;;8.25;2.63;;;26.20;99.90;;;;;;4987416;28;20031;-74
2022/02/11 00:37:57;;;;;;;9.05;3.17;;;26.00;99.90;;;;;;4986692;28;20105;-74
2022/02/11 00:45:33;;;;;;;6.45;2.85;;;25.40;99.90;;;;;;4982951;28;20034;-75
2022/02/11 01:04:17;;;;;;;9.82;2.90;;;25.70;99.90;;;;;;4993600;28;20439;-73
2022/02/11 01:06:45;;;;;;;6.88;2.83;;;26.00;99.90;;;;;;4987808;28;20041;-74
2022/02/11 01:09:13;;;;;;;7.85;2.47;;;26.30;99.90;;;;;;4986346;28;20045;-73
2022/02/11 01:14:11;;;;;;;8.40;3.15;;;26.20;99.90;;;;;;4982511;28;20026;-72
2022/02/11 01:16:46;;;;;;;11.00;3.05;;;26.20;99.90;;;;;;4979235;28;20056;-75
2022/02/11 01:24:57;;;;;;;9.65;2.83;;;26.20;99.90;;;;;;4986397;28;20611;-74
2022/02/11 01:27:33;;;;;;;9.07;3.25;;;26.10;99.90;;;;;;4988496;28;20122;-74
2022/02/11 01:32:46;;;;;;;8.65;3.42;;;25.80;99.90;;;;;;4982414;28;20026;-76
2022/02/11 01:35:48;;;;;;;4.18;2.90;;;25.70;99.90;;;;;;4983128;28;20046;-76
2022/02/11 01:38:39;;;;;;;6.90;3.80;;;25.50;99.90;;;;;;4981986;28;20044;-74
2022/02/11 01:52:17;;;;;;;7.10;2.88;;;25.00;99.90;;;;;;4983605;28;20050;-76
2022/02/11 02:03:13;;;;;;;6.70;4.27;;;24.80;99.90;;;;;;4987990;28;20050;-76
2022/02/11 02:13:57;;;;;;;7.25;3.42;;;25.20;99.90;;;;;;4988655;28;20023;-75
2022/02/11 02:30:33;;;;;;;6.35;2.88;;;26.00;99.40;;;;;;4982635;28;20440;-76
2022/02/11 02:33:12;;;;;;;6.00;3.58;;;26.00;98.90;;;;;;4984052;28;20022;-76
2022/02/11 02:35:53;;;;;;;7.22;3.15;;;25.80;99.10;;;;;;4983717;28;20031;-74
2022/02/11 02:57:58;;;;;;;15.40;3.17;;;27.50;97.40;;;;;;4978417;28;20120;-76
2022/02/11 03:17:30;;;;;;;5.35;3.03;;;27.70;97.10;;;;;;4982648;28;20054;-75
2022/02/11 03:50:35;;;;;;;7.47;1.57;;;29.30;94.50;;;;;;4984468;28;20130;-76
2022/02/11 04:22:39;;;;;;;6.43;1.98;;;27.50;94.70;;;;;;4987049;28;20165;-77
2022/02/11 04:53:43;;;;;;;3.53;1.80;;;26.00;96.30;;;;;;4973753;28;20184;-76
2022/02/11 04:55:27;;;;;;;5.75;1.92;;;25.80;96.60;;;;;;4975383;28;20473;-76
2022/02/11 05:00:40;;;;;;;4.95;1.48;;;25.90;97.10;;;;;;4986215;28;20045;-77
2022/02/11 05:03:10;;;;;;;4.88;1.40;;;25.80;96.10;;;;;;4981307;28;20097;-77
2022/02/11 05:05:50;;;;;;;2.38;1.45;;;25.70;96.00;;;;;;4987154;28;20113;-76
2022/02/11 05:08:25;;;;;;;3.75;1.90;;;25.50;96.20;;;;;;4981583;28;20093;-77
2022/02/11 05:10:58;;;;;;;4.00;1.60;;;25.50;96.20;;;;;;4975287;28;20516;-77
2022/02/11 05:13:26;;;;;;;3.33;1.67;;;25.50;96.10;;;;;;4986116;28;20437;-78
2022/02/11 05:15:54;;;;;;;4.75;1.90;;;25.60;96.30;;;;;;4983515;28;20062;-77
2022/02/11 05:18:21;;;;;;;5.40;2.20;;;25.70;96.30;;;;;;4980190;28;20366;-77
2022/02/11 05:20:50;;;;;;;4.93;2.38;;;25.90;96.30;;;;;;4983823;28;20023;-77
2022/02/11 05:23:17;;;;;;;5.05;1.60;;;25.90;96.60;;;;;;4986989;28;20370;-77
2022/02/11 05:25:46;;;;;;;4.97;2.63;;;26.00;96.30;;;;;;4987177;28;20895;-77
2022/02/11 05:28:14;;;;;;;6.88;2.17;;;26.10;96.40;;;;;;4989869;28;20038;-77
2022/02/11 05:30:42;;;;;;;6.43;2.05;;;26.20;96.20;;;;;;4984167;28;20124;-77
2022/02/11 05:33:12;;;;;;;4.88;2.58;;;26.10;96.30;;;;;;4983193;28;20023;-77
2022/02/11 05:35:39;;;;;;;3.75;1.80;;;26.10;96.20;;;;;;4955399;28;20058;-78
2022/02/11 05:38:07;;;;;;;8.30;2.03;;;26.10;96.10;;;;;;4982348;28;20018;-77
2022/02/11 05:40:35;;;;;;;3.95;1.60;;;26.00;97.00;;;;;;4984305;28;20030;-78
2022/02/11 05:43:02;;;;;;;2.42;1.13;;;25.60;97.50;;;;;;4992275;28;20042;-78
2022/02/11 05:45:30;;;;;;;3.88;1.52;;;25.20;98.10;;;;;;4982484;28;20022;-78
2022/02/11 05:47:57;;;;;;;3.75;1.70;;;25.10;98.70;;;;;;4988122;28;20027;-79
2022/02/11 05:50:24;;;;;;;5.57;2.17;;;24.90;99.00;;;;;;4981435;28;20026;-78
2022/02/11 05:52:52;;;;;;;8.65;2.65;;;24.80;99.40;;;;;;4990201;28;20061;-77
2022/02/11 05:55:19;;;;;;;5.82;1.80;;;24.60;99.70;;;;;;4993694;28;20141;-78
2022/02/11 05:57:50;;;;;;;9.68;2.50;;;24.60;99.90;;;;;;4990106;28;20145;-76
2022/02/11 06:00:19;;;;;;;4.25;2.13;;;24.50;99.90;;;;;;4989096;28;20089;-77
2022/02/11 06:02:46;;;;;;;9.45;2.85;;;24.50;99.80;;;;;;4986453;28;20492;-75
2022/02/11 06:05:16;;;;;;;3.58;2.17;;;24.60;99.80;;;;;;4989852;28;20084;-77
2022/02/11 06:07:44;;;;;;;7.78;2.15;;;24.60;99.90;;;;;;4984421;28;20409;-77
2022/02/11 06:10:12;;;;;;;10.95;2.60;;;24.60;99.80;;;;;;4986279;28;20084;-77
2022/02/11 06:12:40;;;;;;;8.65;2.80;;;24.60;99.90;;;;;;4984014;28;20045;-76
2022/02/11 06:15:08;;;;;;;11.05;2.55;;;24.60;99.90;;;;;;4987263;28;20121;-77
2022/02/11 06:17:38;;;;;;;6.88;3.03;;;24.70;99.90;;;;;;4987007;28;20113;-77
2022/02/11 06:20:07;;;;;;;7.60;3.30;;;24.70;99.90;;;;;;4971870;28;20057;-78
2022/02/11 06:22:34;;;;;;;6.00;2.10;;;24.70;99.90;;;;;;4982534;28;20555;-76
2022/02/11 06:25:02;;;;;;;2.78;2.03;;;24.80;99.90;;;;;;4989966;28;20525;-76
2022/02/11 06:27:29;;;;;;;8.32;3.35;;;24.70;99.90;;;;;;4986066;28;20053;-76
2022/02/11 06:29:57;;;;;;;8.90;3.35;;;24.70;99.90;;;;;;4966255;28;20117;-75
2022/02/11 06:32:24;;;;;;;10.05;3.10;;;24.50;99.90;;;;;;4977281;28;20585;-76
2022/02/11 06:34:56;;;;;;;8.27;3.22;;;24.40;99.90;;;;;;4976122;28;20026;-75
2022/02/11 06:37:23;;;;;;;5.28;3.80;;;24.30;99.90;;;;;;4975701;28;20070;-76
2022/02/11 06:39:51;;;;;;;10.25;4.70;;;24.20;99.90;;;;;;4980176;28;20066;-76
2022/02/11 06:42:18;;;;;;;7.68;3.63;;;24.20;99.90;;;;;;4962898;28;20189;-76
2022/02/11 06:44:46;;;;;;;5.32;3.58;;;24.20;99.90;;;;;;4981941;28;20037;-75
2022/02/11 06:47:13;;;;;;;7.50;3.92;;;24.10;99.90;;;;;;4979023;28;20049;-75
2022/02/11 06:49:40;;;;;;;9.52;3.20;;;24.10;99.90;;;;;;4979598;28;20346;-77
2022/02/11 06:52:09;;;;;;;6.78;3.38;;;24.20;99.90;;;;;;4974106;28;20041;-76
2022/02/11 06:54:37;;;;;;;6.55;3.63;;;24.40;99.90;;;;;;4984944;28;20061;-76
2022/02/11 06:57:04;;;;;;;8.20;3.35;;;24.50;99.90;;;;;;4971957;28;20184;-75
2022/02/11 06:59:32;;;;;;;8.73;4.53;;;24.50;99.90;;;;;;4978810;28;20388;-77
2022/02/11 07:01:59;;;;;;;6.55;3.67;;;24.50;99.90;;;;;;4982368;28;20042;-76
2022/02/11 07:04:28;;;;;;;6.95;3.78;;;24.40;99.90;;;;;;4981387;28;20037;-76
2022/02/11 07:06:57;;;;;;;7.22;3.83;;;24.40;99.90;;;;;;4979429;28;20041;-77
2022/02/11 07:09:24;;;;;;;10.73;5.13;;;24.40;99.90;;;;;;4986104;28;20088;-78
2022/02/11 07:11:52;;;;;;;7.15;3.47;;;24.40;99.90;;;;;;4980898;28;20031;-77
2022/02/11 07:14:19;;;;;;;9.10;3.92;;;24.30;99.90;;;;;;4991060;28;20052;-77
2022/02/11 07:16:47;;;;;;;6.38;3.45;;;24.10;99.90;;;;;;4988060;28;20041;-77
2022/02/11 07:19:14;;;;;;;6.53;3.35;;;23.90;99.90;;;;;;4990389;28;20033;-78
2022/02/11 07:21:42;;;;;;;11.18;3.92;;;23.80;99.90;;;;;;4988942;28;20110;-76
2022/02/11 07:24:09;;;;;;;8.02;3.60;;;23.50;99.90;;;;;;4975816;28;20513;-76
2022/02/11 07:26:36;;;;;;;7.75;4.03;;;23.30;99.90;;;;;;4985390;28;20023;-77
2022/02/11 07:29:04;;;;;;;11.38;4.60;;;23.20;99.90;;;;;;4991356;28;20416;-77
2022/02/11 07:31:32;;;;;;;8.45;3.00;;;23.10;99.90;;;;;;4988150;28;20488;-77
2022/02/11 07:34:00;;;;;;;9.10;4.28;;;23.10;99.90;;;;;;4985537;28;20037;-77
2022/02/11 07:36:27;;;;;;;7.32;4.15;;;23.00;99.90;;;;;;4972397;28;20449;-76
2022/02/11 07:38:54;;;;;;;7.88;2.83;;;22.90;99.90;;;;;;4973898;28;20487;-76
2022/02/11 07:41:22;;;;;;;7.30;3.10;;;22.80;99.90;;;;;;4987954;28;20083;-77
2022/02/11 07:43:49;;;;;;;4.07;2.22;;;22.80;99.90;;;;;;4991429;28;20041;-76
2022/02/11 07:46:17;;;;;;;6.50;2.22;;;22.70;99.90;;;;;;4976977;28;20089;-75
2022/02/11 07:48:44;;;;;;;9.13;4.35;;;22.70;99.90;;;;;;4991104;28;20030;-76
2022/02/11 07:51:11;;;;;;;7.10;3.03;;;22.70;99.90;;;;;;4982358;28;20030;-74
2022/02/11 07:53:39;;;;;;;8.40;3.83;;;22.70;99.90;;;;;;4980453;28;20038;-75
2022/02/11 07:56:07;;;;;;;8.43;3.83;;;22.80;99.90;;;;;;4960114;28;20378;-75
2022/02/11 07:58:35;;;;;;;5.50;2.45;;;22.90;99.90;;;;;;4958543;28;20041;-76
2022/02/11 08:01:02;;;;;;;9.13;3.38;;;22.80;99.90;;;;;;4962325;28;20480;-76
2022/02/11 08:03:29;;;;;;;8.68;2.95;;;22.80;99.90;;;;;;4961375;28;20038;-75
2022/02/11 08:05:57;;;;;;;10.25;3.08;;;22.80;99.90;;;;;;4959792;28;20031;-75
2022/02/11 08:08:30;;;;;;;8.30;3.08;;;22.70;99.90;;;;;;4958787;28;20027;-77
2022/02/11 08:10:59;;;;;;;7.28;3.80;;;22.80;99.90;;;;;;4959917;28;20041;-76
2022/02/11 08:13:26;;;;;;;10.68;3.55;;;22.70;99.90;;;;;;4959779;28;20026;-77
2022/02/11 08:15:55;;;;;;;12.02;4.35;;;22.70;99.90;;;;;;4960025;28;20050;-74
2022/02/11 08:18:22;;;;;;;8.18;2.95;;;22.70;99.90;;;;;;4960936;28;20023;-75
2022/02/11 08:20:50;;;;;;;13.00;4.38;;;22.70;99.90;;;;;;4960855;28;20057;-75
2022/02/11 08:23:17;;;;;;;7.13;2.92;;;22.70;99.90;;;;;;4960510;28;20373;-75
2022/02/11 08:25:44;;;;;;;4.35;2.75;;;22.70;99.90;;;;;;4959749;28;20086;-75
2022/02/11 08:28:12;;;;;;;7.32;3.03;;;22.70;99.90;;;;;;4962400;28;20512;-76
2022/02/11 08:30:39;;;;;;;6.38;3.03;;;22.80;99.90;;;;;;4966449;28;20069;-76
2022/02/11 08:33:06;;;;;;;6.57;2.28;;;22.80;99.90;;;;;;4952928;28;20023;-76
2022/02/11 08:35:34;;;;;;;5.85;2.63;;;22.80;99.90;;;;;;4957753;28;20027;-77
2022/02/11 08:38:01;;;;;;;10.80;3.72;;;22.90;99.90;;;;;;4969056;28;20051;-77
2022/02/11 08:40:28;;;;;;;6.47;2.33;;;22.80;99.90;;;;;;4961143;28;20035;-78
2022/02/11 08:42:56;;;;;;;7.00;3.30;;;22.80;99.90;;;;;;4972009;28;20105;-78
2022/02/11 08:45:23;;;;;;;6.07;2.78;;;22.80;99.90;;;;;;4970577;28;20027;-76
2022/02/11 08:47:51;;;;;;;10.13;3.15;;;22.90;99.90;;;;;;4957864;28;20027;-78
2022/02/11 08:50:20;;;;;;;9.60;3.28;;;22.90;99.90;;;;;;4968446;28;20030;-78
2022/02/11 08:52:47;;;;;;;5.70;2.58;;;22.90;99.90;;;;;;4964138;28;20038;-77
2022/02/11 08:55:19;;;;;;;7.13;3.55;;;22.90;99.90;;;;;;4981776;28;20054;-77
2022/02/11 08:57:47;;;;;;;5.97;3.13;;;22.90;99.90;;;;;;4987605;28;20033;-76
2022/02/11 09:00:19;;;;;;;11.52;3.38;;;22.90;99.90;;;;;;4987149;28;20474;-76
2022/02/11 09:02:47;;;;;;;8.27;2.67;;;22.90;99.90;;;;;;4971931;28;20038;-76
2022/02/11 09:05:14;;;;;;;7.78;3.33;;;22.90;99.90;;;;;;4982388;28;20030;-79
2022/02/11 09:07:41;;;;;;;8.27;2.90;;;22.80;99.90;;;;;;4988638;28;20038;-77
2022/02/11 09:10:09;;;;;;;8.95;3.05;;;22.80;99.90;;;;;;4958818;28;20173;-78
2022/02/11 09:12:37;;;;;;;11.73;3.13;;;22.70;99.90;;;;;;4982450;28;20497;-77
2022/02/11 09:15:04;;;;;;;6.25;2.83;;;22.60;99.90;;;;;;4986231;28;20034;-77
2022/02/11 09:17:32;;;;;;;6.97;3.08;;;22.60;99.90;;;;;;4985566;28;20030;-76
2022/02/11 09:19:59;;;;;;;7.35;2.80;;;22.60;99.90;;;;;;4992756;28;20109;-77
2022/02/11 09:22:26;;;;;;;6.63;2.50;;;22.60;99.90;;;;;;4989343;28;20062;-77
2022/02/11 09:24:54;;;;;;;8.30;3.20;;;22.50;99.90;;;;;;4985844;28;20030;-76
2022/02/11 09:27:25;;;;;;;3.25;1.95;;;22.50;99.90;;;;;;4983301;28;20038;-76
2022/02/11 09:29:52;;;;;;;4.93;2.83;;;22.50;99.90;;;;;;4988919;28;20023;-76
2022/02/11 09:32:20;;;;;;;6.15;3.13;;;22.50;99.90;;;;;;4978933;28;20034;-75
2022/02/11 09:34:47;;;;;;;9.20;3.20;;;22.40;99.90;;;;;;4968420;28;20030;-76
2022/02/11 09:37:17;;;;;;;5.28;2.67;;;22.30;99.90;;;;;;4981473;28;20038;-76
2022/02/11 09:39:45;;;;;;;5.40;3.13;;;22.20;99.90;;;;;;4989187;28;20057;-76
2022/02/11 09:42:17;;;;;;;5.13;2.60;;;22.10;99.90;;;;;;4983213;28;20046;-77
2022/02/11 09:44:46;;;;;;;7.65;3.53;;;22.10;99.90;;;;;;4990107;28;20042;-76
2022/02/11 09:47:17;;;;;;;7.70;3.22;;;22.00;99.90;;;;;;4984420;28;20034;-76
2022/02/11 09:49:47;;;;;;;8.18;3.40;;;22.00;99.90;;;;;;4987744;28;20781;-77
2022/02/11 09:52:17;;;;;;;6.60;3.58;;;22.00;99.90;;;;;;4988128;28;20077;-79
2022/02/11 09:54:44;;;;;;;8.48;3.35;;;22.00;99.90;;;;;;4992940;28;20106;-76
2022/02/11 09:57:13;;;;;;;8.15;3.13;;;21.90;99.90;;;;;;4988635;28;20026;-75
2022/02/11 09:59:42;;;;;;;8.60;3.10;;;21.90;99.90;;;;;;4985068;28;20050;-76
2022/02/11 10:02:09;;;;;;;10.63;4.43;;;21.80;99.90;;;;;;4986943;28;20050;-76
2022/02/11 10:04:56;;;;;;;4.80;2.90;;;21.80;99.90;;;;;;4991633;28;20026;-76
2022/02/11 10:07:23;;;;;;;5.38;3.78;;;21.80;99.90;;;;;;4981011;28;20031;-76
2022/02/11 10:09:51;;;;;;;3.70;3.00;;;21.70;99.90;;;;;;4985298;28;20030;-79
2022/02/11 10:12:18;;;;;;;5.35;2.78;;;21.60;99.90;;;;;;4984789;28;20038;-75
2022/02/11 10:14:46;;;;;;;8.77;3.35;;;21.50;99.90;;;;;;4991008;28;20061;-75
2022/02/11 10:17:19;;;;;;;9.05;3.65;;;21.50;99.90;;;;;;4979552;28;20050;-77
2022/02/11 10:19:55;;;;;;;6.38;2.92;;;21.40;99.90;;;;;;4990249;28;20038;-75
2022/02/11 10:22:25;;;;;;;6.28;2.50;;;21.30;99.90;;;;;;4984531;28;20073;-75
2022/02/11 10:24:57;;;;;;;5.68;3.35;;;21.30;99.90;;;;;;4985032;28;20035;-76
2022/02/11 10:27:27;;;;;;;7.82;3.00;;;21.20;99.90;;;;;;4980329;28;20030;-76
2022/02/11 10:30:07;;;;;;;6.18;2.95;;;21.20;99.90;;;;;;4991454;28;20062;-76
2022/02/11 10:32:44;;;;;;;6.68;3.38;;;21.20;99.90;;;;;;4979261;28;20030;-75
2022/02/11 10:35:14;;;;;;;4.35;2.50;;;21.20;99.90;;;;;;4992205;28;20030;-76
2022/02/11 10:38:11;;;;;;;8.98;3.42;;;21.20;99.90;;;;;;4979699;28;20173;-76
2022/02/11 10:40:41;;;;;;;5.97;2.72;;;21.10;99.90;;;;;;4977762;28;20457;-74
2022/02/11 10:43:26;;;;;;;8.45;3.35;;;21.20;99.90;;;;;;4991409;28;20065;-77
2022/02/11 10:45:59;;;;;;;11.15;3.70;;;21.20;99.90;;;;;;4988386;28;20026;-77
2022/02/11 10:48:26;;;;;;;6.03;3.00;;;21.20;99.90;;;;;;4987531;28;20045;-76
2022/02/11 10:51:01;;;;;;;7.60;2.80;;;21.20;99.90;;;;;;4986272;28;20026;-75
2022/02/11 10:53:30;;;;;;;4.45;2.85;;;21.20;99.90;;;;;;4992270;28;20089;-75
2022/02/11 10:55:59;;;;;;;5.40;2.95;;;21.20;99.90;;;;;;4988270;28;20053;-76
2022/02/11 10:58:28;;;;;;;6.30;3.03;;;21.20;99.90;;;;;;4989954;28;20115;-78
2022/02/11 11:01:05;;;;;;;7.03;3.17;;;21.10;99.90;;;;;;4988888;28;20034;-77
2022/02/11 11:03:35;;;;;;;5.50;2.85;;;21.10;99.90;;;;;;4986389;28;20051;-75
2022/02/11 11:06:06;;;;;;;7.63;3.70;;;21.00;99.90;;;;;;4981263;28;20037;-76
2022/02/11 11:08:39;;;;;;;4.32;3.05;;;21.00;99.90;;;;;;4984634;28;20030;-75
2022/02/11 11:11:11;;;;;;;4.53;3.10;;;21.00;99.90;;;;;;4988566;28;20118;-76
2022/02/11 11:13:42;;;;;;;6.55;3.55;;;20.90;99.90;;;;;;4972887;28;20105;-76
2022/02/11 11:16:12;;;;;;;4.85;3.00;;;20.90;99.90;;;;;;4986626;28;20029;-76
2022/02/11 11:18:39;;;;;;;7.03;3.60;;;20.90;99.90;;;;;;4972381;28;20043;-74
2022/02/11 11:21:14;;;;;;;5.55;4.40;;;20.80;99.90;;;;;;4980356;28;20125;-75
2022/02/11 11:24:03;;;;;;;7.10;3.30;;;20.80;99.90;;;;;;4987972;28;20034;-76
2022/02/11 11:26:47;;;;;;;5.82;2.85;;;20.70;99.90;;;;;;4987801;28;20018;-75
2022/02/11 11:29:18;;;;;;;11.23;3.80;;;20.70;99.90;;;;;;4990262;28;20465;-76
2022/02/11 11:31:56;;;;;;;8.57;3.10;;;20.60;99.90;;;;;;4986527;28;20117;-76
2022/02/11 11:34:25;;;;;;;8.40;3.25;;;20.60;99.90;;;;;;4990929;28;20106;-76
2022/02/11 11:36:59;;;;;;;4.80;3.42;;;20.60;99.90;;;;;;4989322;28;20165;-76
2022/02/11 11:39:27;;;;;;;8.45;3.50;;;20.50;99.90;;;;;;4991106;28;20093;-77
2022/02/11 11:42:11;;;;;;;4.40;3.22;;;20.50;99.90;;;;;;4981096;28;20034;-76
2022/02/11 11:44:46;;;;;;;5.82;3.17;;;20.50;99.90;;;;;;4982834;28;20026;-76
2022/02/11 11:47:24;;;;;;;7.57;3.30;;;20.40;99.90;;;;;;4985779;28;20027;-76
2022/02/11 11:49:51;;;;;;;7.80;3.20;;;20.40;99.90;;;;;;4989284;28;20080;-76
2022/02/11 11:52:20;;;;;;;6.45;3.30;;;20.40;99.90;;;;;;4987773;28;20046;-77
2022/02/11 11:54:48;;;;;;;5.88;2.63;;;20.40;99.90;;;;;;4979298;28;20054;-76
2022/02/11 11:57:19;;;;;;;8.30;3.80;;;20.40;99.90;;;;;;4985170;28;20173;-77
2022/02/11 11:59:57;;;;;;;10.68;4.22;;;20.40;99.90;;;;;;4973772;28;20520;-77
2022/02/11 12:02:33;;;;;;;6.85;2.60;;;20.40;99.90;;;;;;4979439;28;20635;-77
2022/02/11 12:05:03;;;;;;;6.95;3.10;;;20.40;99.90;;;;;;4972070;28;20022;-76
2022/02/11 12:07:37;;;;;;;4.50;2.50;;;20.40;99.90;;;;;;4987327;28;20512;-76
2022/02/11 12:10:08;;;;;;;11.88;2.70;;;20.40;99.90;;;;;;4972202;28;20113;-77
2022/02/11 12:12:37;;;;;;;4.82;3.28;;;20.40;99.90;;;;;;4981182;28;20454;-76
2022/02/11 12:15:07;;;;;;;6.53;2.63;;;20.30;99.90;;;;;;4974871;28;20481;-76
2022/02/11 12:17:34;;;;;;;7.53;3.20;;;20.30;99.90;;;;;;4983271;28;20520;-76
2022/02/11 12:20:04;;;;;;;9.18;3.47;;;20.20;99.90;;;;;;4983932;28;20034;-77
2022/02/11 12:22:32;;;;;;;6.93;2.40;;;20.20;99.90;;;;;;4986069;28;20065;-77
2022/02/11 12:27:50;;;;;;;6.20;2.60;;;20.20;99.90;;;;;;4980977;28;20037;-75
2022/02/11 12:30:22;;;;;;;10.77;3.28;;;20.20;99.90;;;;;;4987149;28;20065;-76
2022/02/11 12:32:56;;;;;;;2.88;2.45;;;20.20;99.90;;;;;;4981267;28;20027;-76
2022/02/11 12:35:27;;;;;;;6.75;2.40;;;20.20;99.90;;;;;;4979965;28;20058;-75
2022/02/11 12:37:56;;;;;;;4.60;2.55;;;20.20;99.90;;;;;;4985954;28;20129;-76
2022/02/11 12:40:28;;;;;;;4.78;2.30;;;20.20;99.90;;;;;;4991232;28;20465;-75
2022/02/11 12:43:04;;;;;;;7.15;2.53;;;20.20;99.90;;;;;;4987264;28;20080;-75
2022/02/11 12:45:39;;;;;;;4.80;2.63;;;20.20;99.90;;;;;;4985938;28;20026;-76
2022/02/11 12:48:15;;;;;;;13.00;3.45;;;20.30;99.90;;;;;;4992098;28;20023;-76
2022/02/11 12:50:43;;;;;;;;;;;20.20;99.90;;;;;;4990693;28;20082;-75
2022/02/11 12:53:17;;;;;;;7.45;2.20;;;20.10;99.90;;;;;;4994508;28;19906;-76
2022/02/11 12:55:50;;;;;;;7.70;2.45;;;20.00;99.90;;;;;;4992673;28;20394;-77
2022/02/11 12:58:21;;;;;;;4.97;2.45;;;19.90;99.90;;;;;;4979025;28;20144;-76
2022/02/11 13:00:50;;;;;;;7.53;3.08;;;19.80;99.90;;;;;;4989710;28;20023;-75
2022/02/11 13:03:19;;;;;;;6.85;3.08;;;19.80;99.90;;;;;;4984440;28;20413;-76
2022/02/11 13:05:52;;;;;;;8.32;3.08;;;19.70;99.90;;;;;;4992136;28;20026;-75
2022/02/11 13:08:24;;;;;;;5.03;2.38;;;19.70;99.90;;;;;;4987166;28;20084;-76
2022/02/11 13:11:04;;;;;;;5.43;2.53;;;19.70;99.90;;;;;;4987762;28;20073;-77
2022/02/11 13:13:32;;;;;;;8.85;2.58;;;19.60;99.90;;;;;;4986953;28;20541;-77
2022/02/11 13:16:05;;;;;;;4.95;2.88;;;19.60;99.90;;;;;;4980944;28;20086;-77
2022/02/11 13:18:35;;;;;;;10.80;2.50;;;19.60;99.90;;;;;;4991177;28;20035;-77
2022/02/11 13:21:05;;;;;;;4.00;2.38;;;19.60;99.90;;;;;;4978784;28;20102;-77
2022/02/11 13:23:34;;;;;;;8.98;2.80;;;19.60;99.90;;;;;;4994431;28;20026;-76
2022/02/11 13:26:06;;;;;;;3.50;2.55;;;19.60;99.90;;;;;;4990892;28;20029;-75
2022/02/11 13:28:45;;;;;;;6.93;2.97;;;19.60;99.90;;;;;;4973351;28;20054;-77
2022/02/11 13:31:12;;;;;;;4.90;2.17;;;19.60;99.90;;;;;;4977925;28;20029;-75
2022/02/11 13:33:40;;;;;;;8.52;2.72;;;19.60;99.90;;;;;;4979273;28;20018;-76
2022/02/11 13:36:09;;;;;;;6.45;1.90;;;19.60;99.90;;;;;;4989465;28;20034;-76
2022/02/11 13:38:50;;;;;;;5.65;2.10;;;19.60;99.90;;;;;;4988182;28;20027;-75
2022/02/11 13:41:24;;;;;;;3.42;2.08;;;19.60;99.90;;;;;;4989893;28;20358;-75
2022/02/11 13:44:08;;;;;;;5.43;2.42;;;19.60;99.90;;;;;;4996703;28;20046;-76
2022/02/11 13:46:41;;;;;;;9.35;2.33;;;19.60;99.90;;;;;;4990734;28;20046;-76
2022/02/11 13:49:12;;;;;;;5.13;2.50;;;19.60;99.90;;;;;;4990257;28;20382;-75
2022/02/11 13:51:41;;;;;;;2.72;1.65;;;19.60;99.90;;;;;;4985630;28;20460;-76
2022/02/11 13:54:14;;;;;;;4.95;1.88;;;19.60;99.90;;;;;;4994164;28;20042;-76
2022/02/11 13:56:46;;;;;;;7.18;1.58;;;19.60;99.90;;;;;;4999569;28;20076;-76
2022/02/11 13:59:39;;;;;;;5.40;2.08;;;19.60;99.90;;;;;;4979057;28;20077;-77
2022/02/11 14:02:10;;;;;;;3.05;1.73;;;19.60;99.90;;;;;;4986000;28;20061;-76
2022/02/11 14:04:37;;;;;;;5.93;2.38;;;19.50;99.90;;;;;;4981646;28;20023;-76
2022/02/11 14:07:07;;;;;;;6.70;2.00;;;19.50;99.90;;;;;;4987138;28;20158;-75
2022/02/11 14:09:40;;;;;;;10.35;1.85;;;19.50;99.90;;;;;;4993415;28;20030;-77
2022/02/11 14:12:09;;;;;;;9.10;1.92;;;19.50;99.90;;;;;;4990308;28;20015;-76
2022/02/11 14:14:36;;;;;;;9.63;2.90;;;19.50;99.90;;;;;;4985770;28;20062;-77
2022/02/11 14:17:05;;;;;;;4.18;1.77;;;19.50;99.90;;;;;;4982691;28;20042;-77
2022/02/11 14:19:37;;;;;;;5.53;1.90;;;19.50;99.90;;;;;;4990654;28;20147;-76
2022/02/11 14:22:04;;;;;;;5.22;2.15;;;19.50;99.90;;;;;;4987194;28;20036;-76
2022/02/11 14:24:31;;;;;;;6.40;1.85;;;19.50;99.90;;;;;;4974198;28;20070;-77
2022/02/11 14:26:59;;;;;;;5.38;1.85;;;19.50;99.90;;;;;;4974630;28;20034;-76
2022/02/11 14:29:26;;;;;;;5.88;2.38;;;19.50;99.90;;;;;;4976903;28;20035;-75
2022/02/11 14:31:54;;;;;;;4.95;2.58;;;19.50;99.90;;;;;;4973689;28;20385;-77
2022/02/11 14:34:21;;;;;;;6.88;2.40;;;19.50;99.90;;;;;;4988468;28;20034;-76
2022/02/11 14:36:49;;;;;;;5.93;2.58;;;19.40;99.90;;;;;;4980037;28;20037;-75
2022/02/11 14:39:17;;;;;;;6.68;2.80;;;19.40;99.90;;;;;;4989740;28;20045;-76
2022/02/11 14:41:51;;;;;;;7.50;2.42;;;19.30;99.90;;;;;;4992593;28;20037;-76
2022/02/11 14:44:23;;;;;;;8.70;2.58;;;19.30;99.90;;;;;;4981790;28;20085;-75
2022/02/11 14:46:53;;;;;;;4.30;2.17;;;19.30;99.90;;;;;;4981372;28;20023;-76
2022/02/11 14:49:22;;;;;;;7.03;2.17;;;19.30;99.90;;;;;;4989508;28;20034;-77
2022/02/11 14:51:55;;;;;;;4.57;2.42;;;19.30;99.90;;;;;;4985528;28;20121;-76
2022/02/11 14:54:23;;;;;;;5.30;2.25;;;19.30;99.90;;;;;;4974583;28;20046;-79
2022/02/11 14:56:53;;;;;;;3.75;2.15;;;19.30;99.90;;;;;;4974721;28;20022;-76
2022/02/11 14:59:22;;;;;;;10.95;2.67;;;19.30;99.90;;;;;;4992383;28;20145;-77
2022/02/11 15:01:49;;;;;;;6.00;2.25;;;19.30;99.90;;;;;;4990257;28;20042;-75
2022/02/11 15:04:17;;;;;;;5.10;2.83;;;19.30;99.90;;;;;;4979564;28;20070;-76
2022/02/11 15:06:47;;;;;;;4.18;2.13;;;19.20;99.90;;;;;;4989807;28;20026;-75
2022/02/11 15:09:14;;;;;;;3.25;1.30;;;19.20;99.90;;;;;;4970550;28;20493;-75
2022/02/11 15:11:42;;;;;;;6.80;1.95;;;19.20;99.90;;;;;;4984301;28;20041;-75
2022/02/11 15:14:11;;;;;;;3.97;1.95;;;19.10;99.90;;;;;;4973410;28;20388;-75
2022/02/11 15:16:38;;;;;;;5.10;1.88;;;19.10;99.90;;;;;;4960151;28;20034;-75
2022/02/11 15:19:06;;;;;;;3.13;2.53;;;19.20;99.90;;;;;;4987870;28;20101;-75
2022/02/11 15:21:35;;;;;;;5.28;2.65;;;19.10;99.90;;;;;;4972689;28;20485;-76
2022/02/11 15:24:04;;;;;;;5.30;1.70;;;19.10;99.90;;;;;;4973096;28;20058;-76
2022/02/11 15:26:31;;;;;;;5.35;1.90;;;19.10;99.90;;;;;;4987463;28;20377;-76
2022/02/11 15:28:58;;;;;;;5.22;2.25;;;19.20;99.90;;;;;;4985498;28;20061;-75
2022/02/11 15:31:26;;;;;;;4.05;1.73;;;19.10;99.90;;;;;;4990081;28;20472;-76
2022/02/11 15:33:53;;;;;;;5.30;2.15;;;19.20;99.90;;;;;;4990896;28;20073;-76
2022/02/11 15:36:21;;;;;;;5.32;2.30;;;19.20;99.90;;;;;;4988423;28;20118;-76
2022/02/11 15:38:48;;;;;;;6.70;2.35;;;19.20;99.90;;;;;;4992029;28;20049;-76
2022/02/11 15:41:16;;;;;;;4.68;1.75;;;19.20;99.90;;;;;;4988504;28;20555;-75
2022/02/11 15:43:44;;;;;;;3.10;1.27;;;19.20;99.90;;;;;;4991588;28;20061;-76
2022/02/11 15:46:12;;;;;;;3.35;1.83;;;19.20;99.90;;;;;;4974310;28;20026;-76
2022/02/11 15:48:40;;;;;;;4.15;2.08;;;19.20;99.90;;;;;;4972957;28;20450;-76
2022/02/11 15:51:11;;;;;;;5.30;1.42;;;19.10;99.90;;;;;;4979890;28;20377;-75
2022/02/11 15:53:39;;;;;;;4.57;1.55;;;19.10;99.90;;;;;;4984851;28;20110;-76
2022/02/11 15:56:08;;;;;;;2.08;1.40;;;19.10;99.90;;;;;;4985899;28;20065;-75
2022/02/11 15:58:35;;;;;;;3.88;1.33;;;19.10;99.90;;;;;;4975355;28;20026;-77
2022/02/11 16:01:03;;;;;;;5.28;1.50;;;19.10;99.90;;;;;;4990176;28;20022;-76
2022/02/11 16:03:30;;;;;;;9.48;2.22;;;19.00;99.90;;;;;;4956810;28;20038;-75
2022/02/11 16:05:58;;;;;;;6.53;2.20;;;19.00;99.90;;;;;;4973796;28;20069;-77
2022/02/11 16:08:25;;;;;;;4.45;1.27;;;19.00;99.90;;;;;;4979945;28;20077;-75
2022/02/11 16:10:52;;;;;;;2.70;1.08;;;19.00;99.90;;;;;;4987846;28;20037;-77
2022/02/11 16:13:20;;;;;;;4.82;1.88;;;19.00;99.90;;;;;;4986541;28;20449;-77
2022/02/11 16:15:47;;;;;;;2.13;1.42;;;19.00;99.90;;;;;;4976984;28;20153;-76
2022/02/11 16:18:16;;;;;;;3.42;1.20;;;19.00;99.90;;;;;;4971669;28;20375;-77
2022/02/11 16:20:47;;;;;;;6.97;1.83;;;19.00;99.90;;;;;;4983463;28;20085;-76
2022/02/11 16:23:17;;;;;;;6.40;1.50;;;19.00;99.90;;;;;;4981624;28;20039;-75
2022/02/11 16:25:45;;;;;;;6.43;1.45;;;19.00;99.90;;;;;;4982894;28;20018;-75
2022/02/11 16:28:16;;;;;;;4.10;1.38;;;19.00;99.90;;;;;;4972050;28;20492;-74
2022/02/11 16:30:44;;;;;;;4.75;2.05;;;19.00;99.90;;;;;;4987674;28;20057;-75
2022/02/11 16:33:13;;;;;;;1.80;1.23;;;19.00;99.90;;;;;;4987379;28;20030;-76
2022/02/11 16:35:42;;;;;;;3.63;1.42;;;19.00;99.90;;;;;;4989895;28;20038;-76